Terminal Aerodrome Forecast
Issued by NWS Wichita, KS

Home | Current Version | Previous Version | Text Only | Print | Product List | Glossary On
Versions: 1 2 3 4 5 6 7 8 9 10 11 12 13 14 15 16 17 18 19 20 21 22 23 24 25
573
FTUS43 KICT 161949 AAA
TAFICT
TAF AMD
KICT 161949Z 1620/1718 16017G24KT P6SM SCT100
     FM162300 16011KT P6SM VCTS BKN040CB OVC090
     FM170200 02010KT P6SM VCTS OVC050CB
     FM171200 03009KT P6SM OVC020
     FM171600 04007KT P6SM BKN030=

USA.gov is the U.S. government's official web portal to all federal, state and local government web resources and services.